sensor_id;sensor_type;location;lat;lon;timestamp;P1;durP1;ratioP1;P2;durP2;ratioP2
7875;SDS011;69649;53.712;9.680;2023-08-01T00:00:00;2.30;;;2.10;;
7875;SDS011;69649;53.712;9.680;2023-08-01T00:02:28;2.07;;;1.90;;
7875;SDS011;69649;53.712;9.680;2023-08-01T00:04:54;1.90;;;1.80;;
7875;SDS011;69649;53.712;9.680;2023-08-01T00:07:20;2.20;;;2.00;;
7875;SDS011;69649;53.712;9.680;2023-08-01T00:09:46;4.03;;;2.20;;
7875;SDS011;69649;53.712;9.680;2023-08-01T00:12:11;3.07;;;2.03;;
7875;SDS011;69649;53.712;9.680;2023-08-01T00:14:37;2.90;;;2.60;;
7875;SDS011;69649;53.712;9.680;2023-08-01T00:17:03;3.53;;;2.40;;
7875;SDS011;69649;53.712;9.680;2023-08-01T00:19:29;2.80;;;2.60;;
7875;SDS011;69649;53.712;9.680;2023-08-01T00:21:55;2.67;;;2.33;;
7875;SDS011;69649;53.712;9.680;2023-08-01T00:24:21;2.83;;;2.40;;
7875;SDS011;69649;53.712;9.680;2023-08-01T00:26:47;5.30;;;2.27;;
7875;SDS011;69649;53.712;9.680;2023-08-01T00:29:13;2.70;;;2.50;;
7875;SDS011;69649;53.712;9.680;2023-08-01T00:31:39;4.97;;;2.10;;
7875;SDS011;69649;53.712;9.680;2023-08-01T00:34:05;3.03;;;2.40;;
7875;SDS011;69649;53.712;9.680;2023-08-01T00:36:30;2.40;;;2.20;;
7875;SDS011;69649;53.712;9.680;2023-08-01T00:38:56;2.20;;;2.00;;
7875;SDS011;69649;53.712;9.680;2023-08-01T00:41:23;2.07;;;1.70;;
7875;SDS011;69649;53.712;9.680;2023-08-01T00:43:48;2.70;;;2.50;;
7875;SDS011;69649;53.712;9.680;2023-08-01T00:46:14;2.13;;;1.80;;
7875;SDS011;69649;53.712;9.680;2023-08-01T00:48:40;2.63;;;1.67;;
7875;SDS011;69649;53.712;9.680;2023-08-01T00:51:07;5.13;;;1.80;;
7875;SDS011;69649;53.712;9.680;2023-08-01T00:53:35;1.73;;;1.63;;
7875;SDS011;69649;53.712;9.680;2023-08-01T00:56:01;1.70;;;1.60;;
7875;SDS011;69649;53.712;9.680;2023-08-01T00:58:28;2.10;;;1.80;;
7875;SDS011;69649;53.712;9.680;2023-08-01T01:00:53;1.80;;;1.70;;
7875;SDS011;69649;53.712;9.680;2023-08-01T01:03:20;3.37;;;2.20;;
7875;SDS011;69649;53.712;9.680;2023-08-01T01:05:47;1.90;;;1.80;;
7875;SDS011;69649;53.712;9.680;2023-08-01T01:08:16;2.60;;;1.80;;
7875;SDS011;69649;53.712;9.680;2023-08-01T01:10:42;2.37;;;1.67;;
7875;SDS011;69649;53.712;9.680;2023-08-01T01:13:08;3.13;;;1.93;;
7875;SDS011;69649;53.712;9.680;2023-08-01T01:15:33;2.07;;;1.90;;
7875;SDS011;69649;53.712;9.680;2023-08-01T01:17:59;2.93;;;2.17;;
7875;SDS011;69649;53.712;9.680;2023-08-01T01:20:25;2.57;;;2.10;;
7875;SDS011;69649;53.712;9.680;2023-08-01T01:22:54;2.60;;;2.40;;
7875;SDS011;69649;53.712;9.680;2023-08-01T01:25:21;5.30;;;2.30;;
7875;SDS011;69649;53.712;9.680;2023-08-01T01:27:48;2.40;;;2.20;;
7875;SDS011;69649;53.712;9.680;2023-08-01T01:30:15;3.40;;;2.00;;
7875;SDS011;69649;53.712;9.680;2023-08-01T01:32:42;2.50;;;2.30;;
7875;SDS011;69649;53.712;9.680;2023-08-01T01:35:08;3.50;;;2.73;;
7875;SDS011;69649;53.712;9.680;2023-08-01T01:37:34;5.07;;;2.70;;
7875;SDS011;69649;53.712;9.680;2023-08-01T01:39:59;3.23;;;2.80;;
7875;SDS011;69649;53.712;9.680;2023-08-01T01:42:25;3.30;;;2.80;;
7875;SDS011;69649;53.712;9.680;2023-08-01T01:44:51;4.00;;;3.07;;
7875;SDS011;69649;53.712;9.680;2023-08-01T01:47:17;3.93;;;3.00;;
7875;SDS011;69649;53.712;9.680;2023-08-01T01:49:43;3.57;;;3.27;;
7875;SDS011;69649;53.712;9.680;2023-08-01T01:52:09;4.30;;;2.87;;
7875;SDS011;69649;53.712;9.680;2023-08-01T01:54:35;8.60;;;3.67;;
7875;SDS011;69649;53.712;9.680;2023-08-01T01:57:00;3.50;;;3.20;;
7875;SDS011;69649;53.712;9.680;2023-08-01T01:59:26;4.83;;;3.83;;
7875;SDS011;69649;53.712;9.680;2023-08-01T02:01:52;5.60;;;3.83;;
7875;SDS011;69649;53.712;9.680;2023-08-01T02:04:18;4.40;;;3.57;;
7875;SDS011;69649;53.712;9.680;2023-08-01T02:06:44;5.53;;;4.50;;
7875;SDS011;69649;53.712;9.680;2023-08-01T02:09:10;7.47;;;4.50;;
7875;SDS011;69649;53.712;9.680;2023-08-01T02:11:36;5.80;;;4.80;;
7875;SDS011;69649;53.712;9.680;2023-08-01T02:14:01;6.97;;;4.50;;
7875;SDS011;69649;53.712;9.680;2023-08-01T02:16:28;6.27;;;5.03;;
7875;SDS011;69649;53.712;9.680;2023-08-01T02:18:54;6.20;;;5.60;;
7875;SDS011;69649;53.712;9.680;2023-08-01T02:21:20;6.37;;;5.77;;
7875;SDS011;69649;53.712;9.680;2023-08-01T02:23:45;8.03;;;6.43;;
7875;SDS011;69649;53.712;9.680;2023-08-01T02:26:11;9.27;;;6.90;;
7875;SDS011;69649;53.712;9.680;2023-08-01T02:28:37;8.00;;;6.50;;
7875;SDS011;69649;53.712;9.680;2023-08-01T02:31:03;9.63;;;6.77;;
7875;SDS011;69649;53.712;9.680;2023-08-01T02:33:28;9.73;;;7.43;;
7875;SDS011;69649;53.712;9.680;2023-08-01T02:35:54;8.33;;;6.80;;
7875;SDS011;69649;53.712;9.680;2023-08-01T02:38:20;11.97;;;7.77;;
7875;SDS011;69649;53.712;9.680;2023-08-01T02:40:46;11.50;;;8.10;;
7875;SDS011;69649;53.712;9.680;2023-08-01T02:43:11;10.47;;;7.60;;
7875;SDS011;69649;53.712;9.680;2023-08-01T02:45:37;13.10;;;8.37;;
7875;SDS011;69649;53.712;9.680;2023-08-01T02:48:03;9.93;;;8.53;;
7875;SDS011;69649;53.712;9.680;2023-08-01T02:50:29;15.10;;;8.10;;
7875;SDS011;69649;53.712;9.680;2023-08-01T02:52:55;10.47;;;7.63;;
7875;SDS011;69649;53.712;9.680;2023-08-01T02:55:20;10.70;;;7.73;;
7875;SDS011;69649;53.712;9.680;2023-08-01T02:57:46;11.70;;;8.40;;
7875;SDS011;69649;53.712;9.680;2023-08-01T03:00:12;11.60;;;8.77;;
7875;SDS011;69649;53.712;9.680;2023-08-01T03:02:38;10.67;;;8.77;;
7875;SDS011;69649;53.712;9.680;2023-08-01T03:05:07;14.73;;;8.93;;
7875;SDS011;69649;53.712;9.680;2023-08-01T03:07:34;11.10;;;8.80;;
7875;SDS011;69649;53.712;9.680;2023-08-01T03:10:00;11.07;;;9.23;;
7875;SDS011;69649;53.712;9.680;2023-08-01T03:12:25;14.10;;;8.87;;
7875;SDS011;69649;53.712;9.680;2023-08-01T03:14:52;13.47;;;8.60;;
7875;SDS011;69649;53.712;9.680;2023-08-01T03:17:18;12.67;;;8.90;;
7875;SDS011;69649;53.712;9.680;2023-08-01T03:19:43;12.37;;;8.87;;
7875;SDS011;69649;53.712;9.680;2023-08-01T03:22:09;11.63;;;9.50;;
7875;SDS011;69649;53.712;9.680;2023-08-01T03:24:35;11.50;;;7.70;;
7875;SDS011;69649;53.712;9.680;2023-08-01T03:27:01;12.27;;;9.77;;
7875;SDS011;69649;53.712;9.680;2023-08-01T03:29:28;17.50;;;10.20;;
7875;SDS011;69649;53.712;9.680;2023-08-01T03:31:54;12.17;;;9.97;;
7875;SDS011;69649;53.712;9.680;2023-08-01T03:34:20;14.17;;;9.50;;
7875;SDS011;69649;53.712;9.680;2023-08-01T03:36:45;12.93;;;10.20;;
7875;SDS011;69649;53.712;9.680;2023-08-01T03:39:11;16.17;;;9.93;;
7875;SDS011;69649;53.712;9.680;2023-08-01T03:41:37;12.83;;;9.17;;
7875;SDS011;69649;53.712;9.680;2023-08-01T03:44:03;13.03;;;9.30;;
7875;SDS011;69649;53.712;9.680;2023-08-01T03:46:29;16.57;;;9.10;;
7875;SDS011;69649;53.712;9.680;2023-08-01T03:48:55;13.43;;;10.47;;
7875;SDS011;69649;53.712;9.680;2023-08-01T03:51:21;13.97;;;10.20;;
7875;SDS011;69649;53.712;9.680;2023-08-01T03:53:47;13.43;;;9.73;;
7875;SDS011;69649;53.712;9.680;2023-08-01T03:56:13;15.40;;;9.40;;
7875;SDS011;69649;53.712;9.680;2023-08-01T03:58:39;11.00;;;9.80;;
7875;SDS011;69649;53.712;9.680;2023-08-01T04:01:04;14.43;;;9.07;;
7875;SDS011;69649;53.712;9.680;2023-08-01T04:03:32;15.73;;;9.50;;
7875;SDS011;69649;53.712;9.680;2023-08-01T04:05:58;15.53;;;8.97;;
7875;SDS011;69649;53.712;9.680;2023-08-01T04:08:23;13.43;;;8.63;;
7875;SDS011;69649;53.712;9.680;2023-08-01T04:10:49;13.00;;;9.53;;
7875;SDS011;69649;53.712;9.680;2023-08-01T04:13:18;11.43;;;8.83;;
7875;SDS011;69649;53.712;9.680;2023-08-01T04:15:44;10.47;;;8.33;;
7875;SDS011;69649;53.712;9.680;2023-08-01T04:18:09;10.53;;;8.63;;
7875;SDS011;69649;53.712;9.680;2023-08-01T04:20:35;12.37;;;8.97;;
7875;SDS011;69649;53.712;9.680;2023-08-01T04:23:01;13.07;;;9.00;;
7875;SDS011;69649;53.712;9.680;2023-08-01T04:25:27;11.80;;;8.13;;
7875;SDS011;69649;53.712;9.680;2023-08-01T04:27:53;10.03;;;7.87;;
7875;SDS011;69649;53.712;9.680;2023-08-01T04:30:19;14.23;;;8.67;;
7875;SDS011;69649;53.712;9.680;2023-08-01T04:32:44;10.60;;;8.83;;
7875;SDS011;69649;53.712;9.680;2023-08-01T04:35:10;10.77;;;8.77;;
7875;SDS011;69649;53.712;9.680;2023-08-01T04:37:36;16.20;;;9.17;;
7875;SDS011;69649;53.712;9.680;2023-08-01T04:40:02;9.00;;;7.83;;
7875;SDS011;69649;53.712;9.680;2023-08-01T04:42:28;10.53;;;7.97;;
7875;SDS011;69649;53.712;9.680;2023-08-01T04:44:54;8.80;;;6.97;;
7875;SDS011;69649;53.712;9.680;2023-08-01T04:47:20;10.63;;;7.83;;
7875;SDS011;69649;53.712;9.680;2023-08-01T04:49:46;13.90;;;8.10;;
7875;SDS011;69649;53.712;9.680;2023-08-01T04:52:12;13.80;;;7.87;;
7875;SDS011;69649;53.712;9.680;2023-08-01T04:54:38;8.97;;;7.13;;
7875;SDS011;69649;53.712;9.680;2023-08-01T04:57:04;8.07;;;6.70;;
7875;SDS011;69649;53.712;9.680;2023-08-01T04:59:30;7.90;;;7.03;;
7875;SDS011;69649;53.712;9.680;2023-08-01T05:01:56;11.03;;;8.03;;
7875;SDS011;69649;53.712;9.680;2023-08-01T05:04:22;9.60;;;6.67;;
7875;SDS011;69649;53.712;9.680;2023-08-01T05:06:47;7.40;;;5.57;;
7875;SDS011;69649;53.712;9.680;2023-08-01T05:09:13;7.27;;;5.77;;
7875;SDS011;69649;53.712;9.680;2023-08-01T05:11:39;12.03;;;6.07;;
7875;SDS011;69649;53.712;9.680;2023-08-01T05:14:04;10.83;;;6.20;;
7875;SDS011;69649;53.712;9.680;2023-08-01T05:16:31;12.20;;;6.60;;
7875;SDS011;69649;53.712;9.680;2023-08-01T05:18:56;9.23;;;5.90;;
7875;SDS011;69649;53.712;9.680;2023-08-01T05:21:22;10.50;;;7.10;;
7875;SDS011;69649;53.712;9.680;2023-08-01T05:23:48;10.47;;;6.37;;
7875;SDS011;69649;53.712;9.680;2023-08-01T05:26:14;9.17;;;5.80;;
7875;SDS011;69649;53.712;9.680;2023-08-01T05:28:40;9.67;;;5.60;;
7875;SDS011;69649;53.712;9.680;2023-08-01T05:31:05;8.27;;;4.97;;
7875;SDS011;69649;53.712;9.680;2023-08-01T05:33:31;8.33;;;5.00;;
7875;SDS011;69649;53.712;9.680;2023-08-01T05:35:57;11.97;;;5.37;;
7875;SDS011;69649;53.712;9.680;2023-08-01T05:38:23;13.10;;;5.70;;
7875;SDS011;69649;53.712;9.680;2023-08-01T05:40:48;11.70;;;6.00;;
7875;SDS011;69649;53.712;9.680;2023-08-01T05:43:14;6.50;;;4.90;;
7875;SDS011;69649;53.712;9.680;2023-08-01T05:45:40;9.97;;;5.20;;
7875;SDS011;69649;53.712;9.680;2023-08-01T05:48:06;11.57;;;5.23;;
7875;SDS011;69649;53.712;9.680;2023-08-01T05:50:32;10.40;;;5.07;;
7875;SDS011;69649;53.712;9.680;2023-08-01T05:52:57;8.17;;;4.63;;
7875;SDS011;69649;53.712;9.680;2023-08-01T05:55:23;7.97;;;4.80;;
7875;SDS011;69649;53.712;9.680;2023-08-01T05:57:49;9.17;;;4.90;;
7875;SDS011;69649;53.712;9.680;2023-08-01T06:00:16;7.40;;;5.00;;
7875;SDS011;69649;53.712;9.680;2023-08-01T06:02:42;9.33;;;4.87;;
7875;SDS011;69649;53.712;9.680;2023-08-01T06:05:08;11.00;;;4.80;;
7875;SDS011;69649;53.712;9.680;2023-08-01T06:07:34;5.67;;;4.60;;
7875;SDS011;69649;53.712;9.680;2023-08-01T06:10:00;8.27;;;4.40;;
7875;SDS011;69649;53.712;9.680;2023-08-01T06:12:25;8.83;;;4.13;;
7875;SDS011;69649;53.712;9.680;2023-08-01T06:14:51;11.80;;;4.50;;
7875;SDS011;69649;53.712;9.680;2023-08-01T06:17:17;8.17;;;3.80;;
7875;SDS011;69649;53.712;9.680;2023-08-01T06:19:43;5.93;;;3.93;;
7875;SDS011;69649;53.712;9.680;2023-08-01T06:22:08;9.97;;;3.70;;
7875;SDS011;69649;53.712;9.680;2023-08-01T06:24:34;7.90;;;4.27;;
7875;SDS011;69649;53.712;9.680;2023-08-01T06:27:00;4.77;;;3.93;;
7875;SDS011;69649;53.712;9.680;2023-08-01T06:29:25;7.40;;;4.43;;
7875;SDS011;69649;53.712;9.680;2023-08-01T06:31:51;6.27;;;3.67;;
7875;SDS011;69649;53.712;9.680;2023-08-01T06:34:17;9.13;;;4.50;;
7875;SDS011;69649;53.712;9.680;2023-08-01T06:36:43;7.70;;;3.97;;
7875;SDS011;69649;53.712;9.680;2023-08-01T06:39:09;6.90;;;3.70;;
7875;SDS011;69649;53.712;9.680;2023-08-01T06:41:35;6.57;;;3.83;;
7875;SDS011;69649;53.712;9.680;2023-08-01T06:44:01;6.70;;;4.30;;
7875;SDS011;69649;53.712;9.680;2023-08-01T06:46:27;6.43;;;3.97;;
7875;SDS011;69649;53.712;9.680;2023-08-01T06:48:53;7.63;;;3.87;;
7875;SDS011;69649;53.712;9.680;2023-08-01T06:51:18;5.83;;;3.93;;
7875;SDS011;69649;53.712;9.680;2023-08-01T06:53:44;6.20;;;3.47;;
7875;SDS011;69649;53.712;9.680;2023-08-01T06:56:10;10.13;;;4.07;;
7875;SDS011;69649;53.712;9.680;2023-08-01T06:58:35;7.60;;;3.23;;
7875;SDS011;69649;53.712;9.680;2023-08-01T07:01:01;7.77;;;3.40;;
7875;SDS011;69649;53.712;9.680;2023-08-01T07:03:27;7.33;;;3.90;;
7875;SDS011;69649;53.712;9.680;2023-08-01T07:05:53;7.27;;;4.40;;
7875;SDS011;69649;53.712;9.680;2023-08-01T07:08:19;5.93;;;3.77;;
7875;SDS011;69649;53.712;9.680;2023-08-01T07:10:46;7.60;;;3.73;;
7875;SDS011;69649;53.712;9.680;2023-08-01T07:13:12;11.13;;;3.90;;
7875;SDS011;69649;53.712;9.680;2023-08-01T07:15:38;7.57;;;3.40;;
7875;SDS011;69649;53.712;9.680;2023-08-01T07:18:03;6.57;;;4.03;;
7875;SDS011;69649;53.712;9.680;2023-08-01T07:20:29;6.17;;;4.03;;
7875;SDS011;69649;53.712;9.680;2023-08-01T07:22:55;6.70;;;3.77;;
7875;SDS011;69649;53.712;9.680;2023-08-01T07:25:21;6.63;;;3.63;;
7875;SDS011;69649;53.712;9.680;2023-08-01T07:27:47;7.83;;;4.13;;
7875;SDS011;69649;53.712;9.680;2023-08-01T07:30:13;9.17;;;3.97;;
7875;SDS011;69649;53.712;9.680;2023-08-01T07:32:39;7.10;;;3.43;;
7875;SDS011;69649;53.712;9.680;2023-08-01T07:35:05;6.73;;;3.17;;
7875;SDS011;69649;53.712;9.680;2023-08-01T07:37:35;6.50;;;4.07;;
7875;SDS011;69649;53.712;9.680;2023-08-01T07:40:04;7.07;;;3.77;;
7875;SDS011;69649;53.712;9.680;2023-08-01T07:42:33;6.83;;;3.83;;
7875;SDS011;69649;53.712;9.680;2023-08-01T07:44:59;6.30;;;3.80;;
7875;SDS011;69649;53.712;9.680;2023-08-01T07:47:25;6.03;;;3.40;;
7875;SDS011;69649;53.712;9.680;2023-08-01T07:49:51;11.53;;;5.10;;
7875;SDS011;69649;53.712;9.680;2023-08-01T07:52:17;12.17;;;4.47;;
7875;SDS011;69649;53.712;9.680;2023-08-01T07:54:43;8.00;;;4.23;;
7875;SDS011;69649;53.712;9.680;2023-08-01T07:57:09;5.30;;;3.97;;
7875;SDS011;69649;53.712;9.680;2023-08-01T07:59:35;6.27;;;3.97;;
7875;SDS011;69649;53.712;9.680;2023-08-01T08:02:00;7.73;;;4.83;;
7875;SDS011;69649;53.712;9.680;2023-08-01T08:04:26;9.90;;;4.40;;
7875;SDS011;69649;53.712;9.680;2023-08-01T08:06:52;6.77;;;3.63;;
7875;SDS011;69649;53.712;9.680;2023-08-01T08:09:20;5.67;;;3.80;;
7875;SDS011;69649;53.712;9.680;2023-08-01T08:11:48;4.80;;;3.93;;
7875;SDS011;69649;53.712;9.680;2023-08-01T08:14:15;8.77;;;3.80;;
7875;SDS011;69649;53.712;9.680;2023-08-01T08:16:42;6.70;;;3.73;;
7875;SDS011;69649;53.712;9.680;2023-08-01T08:19:08;4.23;;;3.50;;
7875;SDS011;69649;53.712;9.680;2023-08-01T08:21:34;8.70;;;3.47;;
7875;SDS011;69649;53.712;9.680;2023-08-01T08:24:00;8.63;;;3.60;;
7875;SDS011;69649;53.712;9.680;2023-08-01T08:26:26;5.43;;;3.50;;
7875;SDS011;69649;53.712;9.680;2023-08-01T08:28:51;6.20;;;3.07;;
7875;SDS011;69649;53.712;9.680;2023-08-01T08:31:17;6.53;;;3.27;;
7875;SDS011;69649;53.712;9.680;2023-08-01T08:33:43;7.07;;;2.93;;
7875;SDS011;69649;53.712;9.680;2023-08-01T08:36:09;4.73;;;2.77;;
7875;SDS011;69649;53.712;9.680;2023-08-01T08:38:35;6.80;;;2.80;;
7875;SDS011;69649;53.712;9.680;2023-08-01T08:41:13;4.33;;;2.63;;
7875;SDS011;69649;53.712;9.680;2023-08-01T08:43:41;3.70;;;2.70;;
7875;SDS011;69649;53.712;9.680;2023-08-01T08:46:08;4.23;;;2.60;;
7875;SDS011;69649;53.712;9.680;2023-08-01T08:48:34;3.57;;;2.57;;
7875;SDS011;69649;53.712;9.680;2023-08-01T08:51:01;8.77;;;3.13;;
7875;SDS011;69649;53.712;9.680;2023-08-01T08:53:29;5.17;;;2.80;;
7875;SDS011;69649;53.712;9.680;2023-08-01T08:55:57;5.10;;;3.50;;
7875;SDS011;69649;53.712;9.680;2023-08-01T08:58:24;6.17;;;2.63;;
7875;SDS011;69649;53.712;9.680;2023-08-01T09:00:50;6.87;;;3.47;;
7875;SDS011;69649;53.712;9.680;2023-08-01T09:03:16;3.53;;;2.70;;
7875;SDS011;69649;53.712;9.680;2023-08-01T09:05:48;7.47;;;3.60;;
7875;SDS011;69649;53.712;9.680;2023-08-01T09:08:15;3.97;;;2.80;;
7875;SDS011;69649;53.712;9.680;2023-08-01T09:10:44;6.00;;;2.93;;
7875;SDS011;69649;53.712;9.680;2023-08-01T09:13:10;5.90;;;3.27;;
7875;SDS011;69649;53.712;9.680;2023-08-01T09:15:35;4.80;;;3.00;;
7875;SDS011;69649;53.712;9.680;2023-08-01T09:18:05;7.23;;;3.37;;
7875;SDS011;69649;53.712;9.680;2023-08-01T09:20:39;4.23;;;3.00;;
7875;SDS011;69649;53.712;9.680;2023-08-01T09:23:09;3.77;;;2.83;;
7875;SDS011;69649;53.712;9.680;2023-08-01T09:25:36;4.63;;;2.67;;
7875;SDS011;69649;53.712;9.680;2023-08-01T09:28:03;6.13;;;3.07;;
7875;SDS011;69649;53.712;9.680;2023-08-01T09:30:28;4.80;;;2.73;;
7875;SDS011;69649;53.712;9.680;2023-08-01T09:32:55;5.90;;;2.87;;
7875;SDS011;69649;53.712;9.680;2023-08-01T09:35:21;5.33;;;2.90;;
7875;SDS011;69649;53.712;9.680;2023-08-01T09:37:48;7.63;;;2.90;;
7875;SDS011;69649;53.712;9.680;2023-08-01T09:40:15;4.97;;;2.50;;
7875;SDS011;69649;53.712;9.680;2023-08-01T09:42:41;4.57;;;2.70;;
7875;SDS011;69649;53.712;9.680;2023-08-01T09:45:12;6.10;;;2.57;;
7875;SDS011;69649;53.712;9.680;2023-08-01T09:47:40;3.57;;;2.03;;
7875;SDS011;69649;53.712;9.680;2023-08-01T09:50:08;2.30;;;1.70;;
7875;SDS011;69649;53.712;9.680;2023-08-01T09:52:35;3.97;;;1.90;;
7875;SDS011;69649;53.712;9.680;2023-08-01T09:55:01;1.87;;;1.70;;
7875;SDS011;69649;53.712;9.680;2023-08-01T09:57:28;3.20;;;1.90;;
7875;SDS011;69649;53.712;9.680;2023-08-01T09:59:56;2.80;;;1.83;;
7875;SDS011;69649;53.712;9.680;2023-08-01T10:02:24;2.03;;;1.83;;
7875;SDS011;69649;53.712;9.680;2023-08-01T10:04:55;2.20;;;1.80;;
7875;SDS011;69649;53.712;9.680;2023-08-01T10:07:24;3.67;;;1.83;;
7875;SDS011;69649;53.712;9.680;2023-08-01T10:09:53;5.30;;;2.17;;
7875;SDS011;69649;53.712;9.680;2023-08-01T10:12:21;3.77;;;2.10;;
7875;SDS011;69649;53.712;9.680;2023-08-01T10:14:49;3.53;;;1.73;;
7875;SDS011;69649;53.712;9.680;2023-08-01T10:17:16;3.57;;;1.80;;
7875;SDS011;69649;53.712;9.680;2023-08-01T10:19:42;2.77;;;1.67;;
7875;SDS011;69649;53.712;9.680;2023-08-01T10:22:08;2.63;;;1.70;;
7875;SDS011;69649;53.712;9.680;2023-08-01T10:24:35;3.97;;;1.70;;
7875;SDS011;69649;53.712;9.680;2023-08-01T10:27:12;1.20;;;1.10;;
7875;SDS011;69649;53.712;9.680;2023-08-01T10:29:39;1.30;;;1.17;;
7875;SDS011;69649;53.712;9.680;2023-08-01T10:32:06;1.63;;;1.37;;
7875;SDS011;69649;53.712;9.680;2023-08-01T10:34:33;1.33;;;1.23;;
7875;SDS011;69649;53.712;9.680;2023-08-01T10:36:59;2.30;;;1.47;;
7875;SDS011;69649;53.712;9.680;2023-08-01T10:39:26;2.40;;;1.47;;
7875;SDS011;69649;53.712;9.680;2023-08-01T10:41:56;2.00;;;1.43;;
7875;SDS011;69649;53.712;9.680;2023-08-01T10:44:25;1.57;;;1.30;;
7875;SDS011;69649;53.712;9.680;2023-08-01T10:46:54;2.43;;;2.03;;
7875;SDS011;69649;53.712;9.680;2023-08-01T10:52:03;3.13;;;1.80;;
7875;SDS011;69649;53.712;9.680;2023-08-01T10:54:32;1.73;;;1.63;;
7875;SDS011;69649;53.712;9.680;2023-08-01T10:56:59;1.83;;;1.53;;
7875;SDS011;69649;53.712;9.680;2023-08-01T10:59:25;2.33;;;1.50;;
7875;SDS011;69649;53.712;9.680;2023-08-01T11:01:52;1.67;;;1.47;;
7875;SDS011;69649;53.712;9.680;2023-08-01T11:04:23;1.47;;;1.13;;
7875;SDS011;69649;53.712;9.680;2023-08-01T11:06:53;2.07;;;1.97;;
7875;SDS011;69649;53.712;9.680;2023-08-01T11:09:22;1.40;;;1.30;;
7875;SDS011;69649;53.712;9.680;2023-08-01T11:11:51;1.20;;;1.10;;
7875;SDS011;69649;53.712;9.680;2023-08-01T11:14:22;1.33;;;1.23;;
7875;SDS011;69649;53.712;9.680;2023-08-01T11:16:50;2.53;;;0.97;;
7875;SDS011;69649;53.712;9.680;2023-08-01T11:21:53;3.23;;;1.20;;
7875;SDS011;69649;53.712;9.680;2023-08-01T11:24:23;2.43;;;1.30;;
7875;SDS011;69649;53.712;9.680;2023-08-01T11:26:51;1.83;;;1.23;;
7875;SDS011;69649;53.712;9.680;2023-08-01T11:29:19;1.37;;;1.27;;
7875;SDS011;69649;53.712;9.680;2023-08-01T11:31:52;1.43;;;1.33;;
7875;SDS011;69649;53.712;9.680;2023-08-01T11:34:20;2.00;;;1.33;;
7875;SDS011;69649;53.712;9.680;2023-08-01T11:36:47;1.93;;;1.60;;
7875;SDS011;69649;53.712;9.680;2023-08-01T11:39:13;1.17;;;1.13;;
7875;SDS011;69649;53.712;9.680;2023-08-01T11:41:40;1.70;;;1.60;;
7875;SDS011;69649;53.712;9.680;2023-08-01T11:44:07;1.83;;;1.40;;
7875;SDS011;69649;53.712;9.680;2023-08-01T11:46:34;2.10;;;1.40;;
7875;SDS011;69649;53.712;9.680;2023-08-01T11:49:03;1.77;;;1.67;;
7875;SDS011;69649;53.712;9.680;2023-08-01T11:51:38;1.30;;;1.20;;
7875;SDS011;69649;53.712;9.680;2023-08-01T11:54:06;1.47;;;1.30;;
7875;SDS011;69649;53.712;9.680;2023-08-01T11:56:33;3.43;;;1.30;;
7875;SDS011;69649;53.712;9.680;2023-08-01T11:58:59;1.53;;;1.40;;
7875;SDS011;69649;53.712;9.680;2023-08-01T12:01:25;1.80;;;1.47;;
7875;SDS011;69649;53.712;9.680;2023-08-01T12:03:52;1.23;;;1.13;;
7875;SDS011;69649;53.712;9.680;2023-08-01T12:09:10;2.03;;;0.97;;
7875;SDS011;69649;53.712;9.680;2023-08-01T12:11:37;2.57;;;1.70;;
7875;SDS011;69649;53.712;9.680;2023-08-01T12:14:06;1.80;;;1.40;;
7875;SDS011;69649;53.712;9.680;2023-08-01T12:16:36;2.37;;;1.40;;
7875;SDS011;69649;53.712;9.680;2023-08-01T12:19:02;2.00;;;1.80;;
7875;SDS011;69649;53.712;9.680;2023-08-01T12:21:29;2.07;;;1.40;;
7875;SDS011;69649;53.712;9.680;2023-08-01T12:23:56;1.70;;;1.47;;
7875;SDS011;69649;53.712;9.680;2023-08-01T12:26:22;1.73;;;1.60;;
7875;SDS011;69649;53.712;9.680;2023-08-01T12:28:49;1.77;;;1.27;;
7875;SDS011;69649;53.712;9.680;2023-08-01T12:31:15;3.70;;;1.33;;
7875;SDS011;69649;53.712;9.680;2023-08-01T12:33:42;1.93;;;1.10;;
7875;SDS011;69649;53.712;9.680;2023-08-01T12:36:08;2.87;;;1.87;;
7875;SDS011;69649;53.712;9.680;2023-08-01T12:38:34;5.47;;;1.17;;
7875;SDS011;69649;53.712;9.680;2023-08-01T12:41:00;3.10;;;1.37;;
7875;SDS011;69649;53.712;9.680;2023-08-01T12:43:26;1.37;;;1.27;;
7875;SDS011;69649;53.712;9.680;2023-08-01T12:45:52;3.43;;;2.20;;
7875;SDS011;69649;53.712;9.680;2023-08-01T12:48:18;1.80;;;1.27;;
7875;SDS011;69649;53.712;9.680;2023-08-01T12:50:44;2.97;;;1.50;;
7875;SDS011;69649;53.712;9.680;2023-08-01T12:53:12;1.57;;;1.23;;
7875;SDS011;69649;53.712;9.680;2023-08-01T12:55:38;1.43;;;1.20;;
7875;SDS011;69649;53.712;9.680;2023-08-01T12:58:03;2.80;;;1.47;;
7875;SDS011;69649;53.712;9.680;2023-08-01T13:00:29;1.37;;;1.20;;
7875;SDS011;69649;53.712;9.680;2023-08-01T13:02:55;3.40;;;2.53;;
7875;SDS011;69649;53.712;9.680;2023-08-01T13:05:22;1.50;;;1.40;;
7875;SDS011;69649;53.712;9.680;2023-08-01T13:07:47;3.00;;;1.77;;
7875;SDS011;69649;53.712;9.680;2023-08-01T13:10:15;1.43;;;1.33;;
7875;SDS011;69649;53.712;9.680;2023-08-01T13:12:41;1.83;;;1.10;;
7875;SDS011;69649;53.712;9.680;2023-08-01T13:15:07;1.60;;;1.40;;
7875;SDS011;69649;53.712;9.680;2023-08-01T13:17:34;1.50;;;1.40;;
7875;SDS011;69649;53.712;9.680;2023-08-01T13:20:00;3.77;;;1.23;;
7875;SDS011;69649;53.712;9.680;2023-08-01T13:22:26;3.83;;;1.50;;
7875;SDS011;69649;53.712;9.680;2023-08-01T13:24:52;1.67;;;1.47;;
7875;SDS011;69649;53.712;9.680;2023-08-01T13:27:17;2.17;;;1.50;;
7875;SDS011;69649;53.712;9.680;2023-08-01T13:29:43;1.50;;;1.40;;
7875;SDS011;69649;53.712;9.680;2023-08-01T13:32:09;3.50;;;1.50;;
7875;SDS011;69649;53.712;9.680;2023-08-01T13:34:35;1.70;;;1.60;;
7875;SDS011;69649;53.712;9.680;2023-08-01T13:37:00;1.77;;;1.47;;
7875;SDS011;69649;53.712;9.680;2023-08-01T13:39:26;1.40;;;1.30;;
7875;SDS011;69649;53.712;9.680;2023-08-01T13:41:52;1.50;;;1.30;;
7875;SDS011;69649;53.712;9.680;2023-08-01T13:44:17;4.10;;;1.87;;
7875;SDS011;69649;53.712;9.680;2023-08-01T13:46:44;1.50;;;1.40;;
7875;SDS011;69649;53.712;9.680;2023-08-01T13:49:09;1.40;;;1.20;;
7875;SDS011;69649;53.712;9.680;2023-08-01T13:51:35;1.40;;;1.30;;
7875;SDS011;69649;53.712;9.680;2023-08-01T13:54:01;4.40;;;1.40;;
7875;SDS011;69649;53.712;9.680;2023-08-01T13:56:26;1.00;;;1.00;;
7875;SDS011;69649;53.712;9.680;2023-08-01T13:58:52;1.47;;;1.20;;
7875;SDS011;69649;53.712;9.680;2023-08-01T14:01:18;1.50;;;1.20;;
7875;SDS011;69649;53.712;9.680;2023-08-01T14:03:44;2.30;;;1.10;;
7875;SDS011;69649;53.712;9.680;2023-08-01T14:06:11;1.67;;;1.37;;
7875;SDS011;69649;53.712;9.680;2023-08-01T14:08:39;1.33;;;1.23;;
7875;SDS011;69649;53.712;9.680;2023-08-01T14:11:07;2.03;;;1.17;;
7875;SDS011;69649;53.712;9.680;2023-08-01T14:13:35;2.73;;;1.17;;
7875;SDS011;69649;53.712;9.680;2023-08-01T14:16:01;1.77;;;0.90;;
7875;SDS011;69649;53.712;9.680;2023-08-01T14:18:28;2.37;;;1.27;;
7875;SDS011;69649;53.712;9.680;2023-08-01T14:20:54;2.47;;;1.07;;
7875;SDS011;69649;53.712;9.680;2023-08-01T14:23:20;3.77;;;1.40;;
7875;SDS011;69649;53.712;9.680;2023-08-01T14:25:47;1.60;;;1.47;;
7875;SDS011;69649;53.712;9.680;2023-08-01T14:28:12;1.40;;;1.10;;
7875;SDS011;69649;53.712;9.680;2023-08-01T14:30:39;1.37;;;1.10;;
7875;SDS011;69649;53.712;9.680;2023-08-01T14:33:08;2.13;;;1.00;;
7875;SDS011;69649;53.712;9.680;2023-08-01T14:35:39;1.50;;;0.90;;
7875;SDS011;69649;53.712;9.680;2023-08-01T14:38:02;1.17;;;1.07;;
7875;SDS011;69649;53.712;9.680;2023-08-01T14:40:29;2.17;;;1.23;;
7875;SDS011;69649;53.712;9.680;2023-08-01T14:42:55;2.00;;;1.20;;
7875;SDS011;69649;53.712;9.680;2023-08-01T14:45:21;1.90;;;1.20;;
7875;SDS011;69649;53.712;9.680;2023-08-01T14:47:48;1.87;;;1.10;;
7875;SDS011;69649;53.712;9.680;2023-08-01T14:50:14;1.37;;;1.20;;
7875;SDS011;69649;53.712;9.680;2023-08-01T14:52:40;3.00;;;1.30;;
7875;SDS011;69649;53.712;9.680;2023-08-01T14:55:07;1.40;;;1.10;;
7875;SDS011;69649;53.712;9.680;2023-08-01T14:57:33;3.07;;;1.87;;
7875;SDS011;69649;53.712;9.680;2023-08-01T14:59:59;7.53;;;1.73;;